^^
Meteo Knjazevac Station Historical Data
Daily Summary for June 11, 2021 Units:  Metric    English   Both
Daily Weekly Monthly Yearly Custom
  High: Low: Average:
Temperature: 12.4 °C 8.9 °C 10.7 °C
Dew Point: 8.8 °C 6.3 °C 7.6 °C
Humidity: 84% 79% 82%
Wind Speed: 3.2km/h 0km/h 0.8km/h
Wind Gust: 6.4km/h - -
Wind- - SSW
Pressure: 1020.9 hPa 1020.9 hPa -
Precipitation: 0 mm    
Historical Graphs
 
 
Tabular Data for June 11, 2021
Time Temperature Dew Point Pressure Wind Wind Speed Wind Gust Humidity Rainfall Rate (Hourly) solar Conditions
00:00 12.4 °C 8.8 °C 1020.9 hPa NNE 1.6 km/h 4.8 km/h 79% 0 mm 0 W/m2
00:10 12.2 °C 8.7 °C 1020.9 hPa Calm   4.8 km/h 79% 0 mm 0 W/m2
00:20 12.1 °C 8.6 °C 1020.9 hPa Calm   3.2 km/h 79% 0 mm 0 W/m2
00:30 11.9 °C 8.4 °C 1020.9 hPa SSE 1.6 km/h 6.4 km/h 79% 0 mm 0 W/m2
00:40 11.8 °C 8.3 °C 1020.9 hPa SE 3.2 km/h 6.4 km/h 79% 0 mm 0 W/m2
00:50 11.6 °C 8.3 °C 1020.9 hPa South 1.6 km/h 6.4 km/h 80% 0 mm 0 W/m2
01:00 11.4 °C 8.1 °C 1020.9 hPa SSW 1.6 km/h 4.8 km/h 80% 0 mm 0 W/m2
01:10 11.2 °C 7.9 °C 1020.9 hPa Calm   4.8 km/h 80% 0 mm 0 W/m2
01:20 11.1 °C 7.9 °C 1020.9 hPa SSW 1.6 km/h 4.8 km/h 81% 0 mm 0 W/m2
01:30 10.8 °C 7.7 °C 1020.9 hPa Calm   3.2 km/h 81% 0 mm 0 W/m2
01:40 10.5 °C 7.4 °C 1020.9 hPa WNW 1.6 km/h 1.6 km/h 81% 0 mm 0 W/m2
01:50 10.2 °C 7.1 °C 1020.9 hPa Calm   3.2 km/h 81% 0 mm 0 W/m2
02:00 10 °C 7.2 °C 1020.9 hPa Calm   3.2 km/h 83% 0 mm 0 W/m2
02:10 9.9 °C 7.3 °C 1020.9 hPa NW 1.6 km/h 3.2 km/h 84% 0 mm 0 W/m2
02:20 9.8 °C 7.1 °C 1020.9 hPa Calm   3.2 km/h 83% 0 mm 0 W/m2
02:30 9.7 °C 7.1 °C 1020.9 hPa Calm   3.2 km/h 84% 0 mm 0 W/m2
02:40 9.5 °C 6.9 °C 1020.9 hPa WNW 1.6 km/h 3.2 km/h 84% 0 mm 0 W/m2
02:50 9.3 °C 6.7 °C 1020.9 hPa Calm   3.2 km/h 84% 0 mm 0 W/m2
03:00 9.1 °C 6.6 °C 1020.9 hPa Calm   1.6 km/h 84% 0 mm 0 W/m2
03:10 8.9 °C 6.3 °C 1020.9 hPa Calm   3.2 km/h 84% 0 mm 0 W/m2
Knjazevac, Serbia
Compliments of Weather Underground - 2 mb